createdAt,value
2023-03-13T00:01:42.076Z,-1.38
2023-03-13T00:04:10.348Z,-1.41
2023-03-13T00:06:40.156Z,-1.43
2023-03-13T00:09:11.427Z,-1.44
2023-03-13T00:11:40.094Z,-1.47
2023-03-13T00:14:09.092Z,-1.47
2023-03-13T00:16:39.772Z,-1.47
2023-03-13T00:19:09.277Z,-1.50
2023-03-13T00:21:41.575Z,-1.53
2023-03-13T00:24:12.475Z,-1.59
2023-03-13T00:26:40.735Z,-1.64
2023-03-13T00:29:09.020Z,-1.73
2023-03-13T00:31:37.763Z,-1.78
2023-03-13T00:34:06.208Z,-1.76
2023-03-13T00:36:36.065Z,-1.74
2023-03-13T00:39:06.659Z,-1.72
2023-03-13T00:41:37.650Z,-1.72
2023-03-13T00:44:06.870Z,-1.76
2023-03-13T00:46:36.155Z,-1.82
2023-03-13T00:49:05.311Z,-1.86
2023-03-13T00:51:35.793Z,-1.92
2023-03-13T00:54:05.151Z,-1.96
2023-03-13T00:56:34.961Z,-1.99
2023-03-13T00:59:03.546Z,-2.00
2023-03-13T01:01:34.723Z,-2.01
2023-03-13T01:04:11.070Z,-2.01
2023-03-13T01:06:43.166Z,-2.02
2023-03-13T01:09:14.603Z,-2.02
2023-03-13T01:11:45.402Z,-2.02
2023-03-13T01:14:17.504Z,-2.00
2023-03-13T01:16:46.396Z,-2.03
2023-03-13T01:19:16.829Z,-2.07
2023-03-13T01:21:47.221Z,-2.09
2023-03-13T01:24:17.073Z,-2.13
2023-03-13T01:26:45.366Z,-2.15
2023-03-13T01:29:14.441Z,-2.18
2023-03-13T01:31:43.048Z,-2.18
2023-03-13T01:34:11.673Z,-2.19
2023-03-13T01:36:40.135Z,-2.20
2023-03-13T01:39:08.723Z,-2.23
2023-03-13T01:41:38.246Z,-2.23
2023-03-13T01:44:21.451Z,-2.26
2023-03-13T01:46:50.497Z,-2.31
2023-03-13T01:49:33.628Z,-2.33
2023-03-13T01:52:17.288Z,-2.36
2023-03-13T01:55:02.877Z,-2.38
2023-03-13T01:57:36.887Z,-2.39
2023-03-13T02:00:16.705Z,-2.37
2023-03-13T02:02:49.083Z,-2.35
2023-03-13T02:05:21.999Z,-2.36
2023-03-13T02:07:53.552Z,-2.36
2023-03-13T02:10:23.472Z,-2.38
2023-03-13T02:12:52.656Z,-2.38
2023-03-13T02:15:25.029Z,-2.40
2023-03-13T02:17:55.086Z,-2.40
2023-03-13T02:20:23.837Z,-2.41
2023-03-13T02:23:28.166Z,-2.44
2023-03-13T02:25:56.960Z,-2.49
2023-03-13T02:28:34.091Z,-2.49
2023-03-13T02:31:04.112Z,-2.50
2023-03-13T02:33:41.524Z,-2.51
2023-03-13T02:36:14.875Z,-2.52
2023-03-13T02:38:51.859Z,-2.55
2023-03-13T02:41:23.204Z,-2.59
2023-03-13T02:43:52.916Z,-2.61
2023-03-13T02:46:21.950Z,-2.62
2023-03-13T02:48:56.224Z,-2.63
2023-03-13T02:51:46.211Z,-2.65
2023-03-13T02:54:25.122Z,-2.68
2023-03-13T02:56:57.808Z,-2.72
2023-03-13T02:59:26.889Z,-2.76
2023-03-13T03:01:55.507Z,-2.81
2023-03-13T03:04:25.825Z,-2.85
2023-03-13T03:06:58.296Z,-2.90
2023-03-13T03:09:26.688Z,-2.95
2023-03-13T03:11:58.452Z,-2.96
2023-03-13T03:14:29.199Z,-2.97
2023-03-13T03:16:58.401Z,-2.97
2023-03-13T03:19:27.495Z,-2.97
2023-03-13T03:21:55.992Z,-2.94
2023-03-13T03:24:24.259Z,-2.93
2023-03-13T03:26:52.640Z,-2.91
2023-03-13T03:29:30.031Z,-2.92
2023-03-13T03:31:59.088Z,-2.96
2023-03-13T03:34:27.923Z,-3.00
2023-03-13T03:36:56.723Z,-3.01
2023-03-13T03:39:25.307Z,-3.00
2023-03-13T03:41:55.168Z,-3.03
2023-03-13T03:44:23.817Z,-3.06
2023-03-13T03:46:56.465Z,-3.06
2023-03-13T03:49:25.599Z,-3.07
2023-03-13T03:51:54.703Z,-3.08
2023-03-13T03:54:28.307Z,-3.09
2023-03-13T03:56:57.096Z,-3.08
2023-03-13T03:59:26.201Z,-3.10
2023-03-13T04:02:04.865Z,-3.12
2023-03-13T04:04:34.436Z,-3.17
2023-03-13T04:07:16.121Z,-3.15
2023-03-13T04:09:45.224Z,-3.12
2023-03-13T04:12:22.100Z,-3.09
2023-03-13T04:14:53.453Z,-3.04
2023-03-13T04:17:23.271Z,-2.98
2023-03-13T04:19:52.171Z,-2.97
2023-03-13T04:22:20.858Z,-2.97
2023-03-13T04:24:53.028Z,-2.98
2023-03-13T04:27:22.740Z,-3.00
2023-03-13T04:29:52.558Z,-3.03
2023-03-13T04:32:56.400Z,-3.05
2023-03-13T04:35:44.842Z,-3.02
2023-03-13T04:38:19.318Z,-3.01
2023-03-13T04:41:06.225Z,-3.02
2023-03-13T04:43:54.975Z,-3.00
2023-03-13T04:46:41.980Z,-2.92
2023-03-13T04:49:25.407Z,-2.84
2023-03-13T04:52:09.405Z,-2.75
2023-03-13T04:54:58.419Z,-2.64
2023-03-13T04:57:45.418Z,-2.53
2023-03-13T05:00:42.862Z,-2.41
2023-03-13T05:03:19.537Z,-2.32
2023-03-13T05:06:07.451Z,-2.21
2023-03-13T05:08:41.168Z,-2.12
2023-03-13T05:11:18.560Z,-2.04
2023-03-13T05:14:09.686Z,-1.98
2023-03-13T05:16:47.864Z,-1.94
2023-03-13T05:19:48.801Z,-1.94
2023-03-13T05:22:31.622Z,-1.91
2023-03-13T05:25:21.183Z,-1.83
2023-03-13T05:28:17.703Z,-1.78
2023-03-13T05:30:48.780Z,-1.73
2023-03-13T05:33:49.476Z,-1.67
2023-03-13T05:36:27.173Z,-1.63
2023-03-13T05:39:12.847Z,-1.60
2023-03-13T05:41:50.645Z,-1.57
2023-03-13T05:44:38.473Z,-1.55
2023-03-13T05:47:27.124Z,-1.52
2023-03-13T05:50:14.544Z,-1.49
2023-03-13T05:53:15.471Z,-1.45
2023-03-13T05:56:07.444Z,-1.41
2023-03-13T05:58:38.427Z,-1.35
2023-03-13T06:01:35.877Z,-1.28
2023-03-13T06:04:10.607Z,-1.19
2023-03-13T06:06:40.630Z,-1.08
2023-03-13T06:09:11.879Z,-0.96
2023-03-13T06:11:41.898Z,-0.80
2023-03-13T06:14:10.691Z,-0.63
2023-03-13T06:16:48.132Z,-0.42
2023-03-13T06:19:20.144Z,-0.26
2023-03-13T06:21:48.633Z,-0.10
2023-03-13T06:24:16.916Z,0.04
2023-03-13T06:26:45.241Z,0.17
2023-03-13T06:29:13.383Z,0.27
2023-03-13T06:31:41.979Z,0.35
2023-03-13T06:34:12.558Z,0.40
2023-03-13T06:36:41.142Z,0.45
2023-03-13T06:39:10.223Z,0.48
2023-03-13T06:41:38.578Z,0.49
2023-03-13T06:44:06.960Z,0.49
2023-03-13T06:46:35.199Z,0.51
2023-03-13T06:49:06.098Z,0.54
2023-03-13T06:51:34.485Z,0.63
2023-03-13T06:54:03.912Z,0.74
2023-03-13T06:56:32.569Z,0.88
2023-03-13T06:59:01.259Z,1.02
2023-03-13T07:01:29.497Z,1.19
2023-03-13T07:03:58.046Z,1.40
2023-03-13T07:06:27.335Z,1.66
2023-03-13T07:08:55.720Z,1.93
2023-03-13T07:11:25.331Z,2.15
2023-03-13T07:14:10.120Z,2.33
2023-03-13T07:16:45.775Z,2.52
2023-03-13T07:19:15.405Z,2.63
2023-03-13T07:21:44.449Z,2.71
2023-03-13T07:24:12.990Z,2.77
2023-03-13T07:26:51.208Z,2.85
2023-03-13T07:29:22.914Z,2.94
2023-03-13T07:31:51.427Z,3.02
2023-03-13T07:34:20.115Z,3.11
2023-03-13T07:36:48.930Z,3.19
2023-03-13T07:39:17.574Z,3.31
2023-03-13T07:41:46.662Z,3.49
2023-03-13T07:44:18.519Z,3.66
2023-03-13T07:46:48.689Z,3.84
2023-03-13T07:49:17.456Z,4.04
2023-03-13T07:51:48.298Z,4.23
2023-03-13T07:54:16.580Z,4.47
2023-03-13T07:56:44.867Z,4.72
2023-03-13T07:59:13.449Z,4.96
2023-03-13T08:01:42.139Z,5.19
2023-03-13T08:04:14.163Z,5.40
2023-03-13T08:06:42.445Z,5.65
2023-03-13T08:09:11.306Z,5.86
2023-03-13T08:11:41.398Z,6.07
2023-03-13T08:14:09.802Z,6.24
2023-03-13T08:16:38.852Z,6.36
2023-03-13T08:19:07.390Z,6.48
2023-03-13T08:21:37.763Z,6.56
2023-03-13T08:24:08.645Z,6.69
2023-03-13T08:26:38.864Z,6.78
2023-03-13T08:29:12.555Z,6.86
2023-03-13T08:31:49.667Z,6.91
2023-03-13T08:34:19.377Z,7.02
2023-03-13T08:36:48.203Z,7.14
2023-03-13T08:39:18.604Z,7.32
2023-03-13T08:41:47.310Z,7.47
2023-03-13T08:44:18.749Z,7.64
2023-03-13T08:46:49.361Z,7.85
2023-03-13T08:49:17.956Z,8.03
2023-03-13T08:51:46.600Z,8.25
2023-03-13T08:54:14.857Z,8.47
2023-03-13T08:56:47.127Z,8.61
2023-03-13T08:59:16.020Z,8.78
2023-03-13T09:01:44.621Z,9.00
2023-03-13T09:04:13.634Z,9.12
2023-03-13T09:06:42.082Z,9.25
2023-03-13T09:09:11.368Z,9.41
2023-03-13T09:11:40.083Z,9.56
2023-03-13T09:14:10.436Z,9.74
2023-03-13T09:16:38.917Z,9.88
2023-03-13T09:19:07.713Z,10.06
2023-03-13T09:21:36.593Z,10.32
2023-03-13T09:24:05.388Z,10.61
2023-03-13T09:26:34.046Z,10.88
2023-03-13T09:29:02.846Z,11.23
2023-03-13T09:31:33.217Z,11.83
2023-03-13T09:34:02.555Z,12.65
2023-03-13T09:36:30.990Z,13.45
2023-03-13T09:39:00.502Z,14.32
2023-03-13T09:41:55.601Z,15.15
2023-03-13T09:44:33.032Z,15.90
2023-03-13T09:47:24.386Z,16.19
2023-03-13T09:50:05.165Z,16.80
2023-03-13T09:52:44.002Z,17.20
2023-03-13T09:55:21.092Z,17.52
2023-03-13T09:58:20.667Z,17.86
2023-03-13T10:00:55.014Z,18.28
2023-03-13T10:03:29.210Z,18.56
2023-03-13T10:06:04.532Z,18.79
2023-03-13T10:08:34.568Z,19.28
2023-03-13T10:11:21.467Z,19.61
2023-03-13T10:14:06.529Z,19.70
2023-03-13T10:16:49.969Z,20.23
2023-03-13T10:19:19.482Z,20.73
2023-03-13T10:21:53.277Z,20.81
2023-03-13T10:24:34.052Z,21.03
2023-03-13T10:27:02.429Z,21.53
2023-03-13T10:29:31.942Z,22.14
2023-03-13T10:32:02.002Z,22.41
2023-03-13T10:34:53.473Z,22.74
2023-03-13T10:37:28.199Z,23.14
2023-03-13T10:40:12.118Z,23.40
2023-03-13T10:42:45.874Z,23.58
2023-03-13T10:45:21.617Z,23.71
2023-03-13T10:47:55.907Z,23.84
2023-03-13T10:50:26.653Z,24.02
2023-03-13T10:52:55.349Z,24.19
2023-03-13T10:55:26.184Z,23.93
2023-03-13T10:58:00.718Z,23.61
2023-03-13T11:00:39.025Z,23.31
2023-03-13T11:03:18.216Z,23.07
2023-03-13T11:05:56.976Z,22.68
2023-03-13T11:08:28.677Z,22.68
2023-03-13T11:11:00.405Z,22.83
2023-03-13T11:13:43.825Z,22.98
2023-03-13T11:16:29.447Z,22.69
2023-03-13T11:19:13.573Z,22.42
2023-03-13T11:22:01.335Z,22.70
2023-03-13T11:24:55.040Z,22.74
2023-03-13T11:27:48.896Z,22.78
2023-03-13T11:30:20.050Z,22.23
2023-03-13T11:32:55.858Z,21.78
2023-03-13T11:35:50.805Z,21.87
2023-03-13T11:38:28.284Z,21.80
2023-03-13T11:41:13.630Z,21.51
2023-03-13T11:43:57.083Z,20.90
2023-03-13T11:46:57.706Z,20.96
2023-03-13T11:49:41.763Z,20.59
2023-03-13T11:53:01.737Z,20.72
2023-03-13T11:55:42.569Z,20.86
2023-03-13T11:58:45.043Z,20.76
2023-03-13T12:01:18.193Z,20.70
2023-03-13T12:03:52.704Z,20.59
2023-03-13T12:06:36.907Z,20.13
2023-03-13T12:09:20.631Z,19.95
2023-03-13T12:12:04.843Z,19.79
2023-03-13T12:14:37.885Z,19.57
2023-03-13T12:17:13.204Z,19.79
2023-03-13T12:19:58.503Z,19.94
2023-03-13T12:22:35.869Z,20.04
2023-03-13T12:25:13.264Z,20.19
2023-03-13T12:27:47.727Z,20.33
2023-03-13T12:30:41.308Z,20.25
2023-03-13T12:33:18.934Z,20.36
2023-03-13T12:36:02.315Z,20.71
2023-03-13T12:38:40.184Z,21.30
2023-03-13T12:41:14.073Z,22.05
2023-03-13T12:43:49.724Z,22.28
2023-03-13T12:46:23.166Z,22.68
2023-03-13T12:49:27.811Z,23.22
2023-03-13T12:52:18.629Z,23.54
2023-03-13T12:54:47.221Z,23.78
2023-03-13T12:57:21.358Z,24.20
2023-03-13T12:59:56.684Z,24.49
2023-03-13T13:02:29.154Z,24.83
2023-03-13T13:05:01.729Z,25.36
2023-03-13T13:07:33.454Z,25.71
2023-03-13T13:10:11.085Z,25.68
2023-03-13T13:12:47.968Z,25.76
2023-03-13T13:15:26.993Z,26.01
2023-03-13T13:18:16.456Z,26.31
2023-03-13T13:20:50.225Z,26.99
2023-03-13T13:23:34.084Z,27.30
2023-03-13T13:26:33.959Z,27.40
2023-03-13T13:29:11.309Z,27.85
2023-03-13T13:31:58.925Z,28.14
2023-03-13T13:34:34.766Z,28.52
2023-03-13T13:37:23.418Z,28.87
2023-03-13T13:39:54.415Z,29.14
2023-03-13T13:42:32.679Z,29.27
2023-03-13T13:45:14.566Z,29.39
2023-03-13T13:47:46.939Z,29.58
2023-03-13T13:50:25.561Z,29.48
2023-03-13T13:53:34.461Z,29.35
2023-03-13T13:56:10.527Z,29.14
2023-03-13T13:58:44.279Z,28.94
2023-03-13T14:01:17.059Z,28.51
2023-03-13T14:03:45.515Z,28.32
2023-03-13T14:06:44.072Z,28.12
2023-03-13T14:09:29.238Z,28.08
2023-03-13T14:11:58.032Z,28.26
2023-03-13T14:14:26.418Z,28.47
2023-03-13T14:16:59.215Z,28.22
2023-03-13T14:19:30.713Z,28.07
2023-03-13T14:22:00.888Z,27.75
2023-03-13T14:24:29.691Z,27.49
2023-03-13T14:26:58.069Z,26.97
2023-03-13T14:29:27.028Z,26.46
2023-03-13T14:31:59.855Z,26.30
2023-03-13T14:34:31.458Z,26.31
2023-03-13T14:37:17.306Z,26.48
2023-03-13T14:39:48.941Z,26.55
2023-03-13T14:42:19.220Z,26.38
2023-03-13T14:44:50.481Z,26.24
2023-03-13T14:47:31.081Z,26.12
2023-03-13T14:50:04.619Z,25.88
2023-03-13T14:52:33.350Z,25.70
2023-03-13T14:55:05.679Z,25.44
2023-03-13T14:57:35.204Z,25.41
2023-03-13T15:00:33.932Z,25.12
2023-03-13T15:03:19.009Z,25.25
2023-03-13T15:06:04.175Z,25.41
2023-03-13T15:08:33.486Z,25.54
2023-03-13T15:11:02.177Z,25.39
2023-03-13T15:13:32.118Z,25.13
2023-03-13T15:16:01.512Z,24.82
2023-03-13T15:18:33.155Z,24.55
2023-03-13T15:21:10.958Z,24.14
2023-03-13T15:23:41.071Z,23.45
2023-03-13T15:26:09.269Z,22.43
2023-03-13T15:28:37.638Z,21.56
2023-03-13T15:31:06.536Z,20.72
2023-03-13T15:33:35.025Z,19.91
2023-03-13T15:36:04.026Z,19.30
2023-03-13T15:38:32.507Z,18.78
2023-03-13T15:41:00.995Z,18.39
2023-03-13T15:43:29.397Z,17.99
2023-03-13T15:45:57.786Z,17.54
2023-03-13T15:48:28.624Z,17.16
2023-03-13T15:50:59.810Z,16.80
2023-03-13T15:53:30.844Z,16.39
2023-03-13T15:56:01.544Z,15.94
2023-03-13T15:58:30.542Z,15.50
2023-03-13T16:00:59.246Z,15.12
2023-03-13T16:03:29.142Z,14.78
2023-03-13T16:05:57.819Z,14.53
2023-03-13T16:08:36.681Z,14.32
2023-03-13T16:11:06.160Z,14.10
2023-03-13T16:13:34.657Z,13.95
2023-03-13T16:16:03.137Z,13.82
2023-03-13T16:18:31.319Z,13.69
2023-03-13T16:20:59.701Z,13.58
2023-03-13T16:23:27.884Z,13.45
2023-03-13T16:25:56.308Z,13.30
2023-03-13T16:28:24.547Z,13.18
2023-03-13T16:30:52.860Z,13.08
2023-03-13T16:33:21.419Z,12.98
2023-03-13T16:35:49.874Z,12.90
2023-03-13T16:38:20.757Z,12.82
2023-03-13T16:40:49.337Z,12.76
2023-03-13T16:43:17.616Z,12.68
2023-03-13T16:45:46.818Z,12.61
2023-03-13T16:48:19.380Z,12.53
2023-03-13T16:50:47.582Z,12.45
2023-03-13T16:53:16.179Z,12.40
2023-03-13T16:55:44.857Z,12.35
2023-03-13T16:58:13.447Z,12.30
2023-03-13T17:00:41.932Z,12.20
2023-03-13T17:03:10.420Z,12.11
2023-03-13T17:05:38.907Z,12.02
2023-03-13T17:08:07.302Z,11.94
2023-03-13T17:10:36.088Z,11.87
2023-03-13T17:13:05.708Z,11.81
2023-03-13T17:15:34.098Z,11.66
2023-03-13T17:18:02.781Z,11.50
2023-03-13T17:20:32.181Z,11.39
2023-03-13T17:23:01.348Z,11.30
2023-03-13T17:25:30.234Z,11.22
2023-03-13T17:27:58.454Z,11.13
2023-03-13T17:30:30.437Z,11.00
2023-03-13T17:33:01.054Z,10.88
2023-03-13T17:35:29.643Z,10.75
2023-03-13T17:37:58.246Z,10.59
2023-03-13T17:40:29.668Z,10.50
2023-03-13T17:42:58.799Z,10.42
2023-03-13T17:45:27.271Z,10.32
2023-03-13T17:47:56.350Z,10.23
2023-03-13T17:50:27.346Z,9.96
2023-03-13T17:52:56.410Z,9.79
2023-03-13T17:55:25.235Z,9.70
2023-03-13T17:57:53.917Z,9.59
2023-03-13T18:00:31.835Z,9.52
2023-03-13T18:03:00.438Z,9.45
2023-03-13T18:05:29.084Z,9.38
2023-03-13T18:07:57.957Z,9.31
2023-03-13T18:10:29.844Z,9.24
2023-03-13T18:12:58.441Z,9.22
2023-03-13T18:15:27.228Z,9.22
2023-03-13T18:17:55.516Z,9.27
2023-03-13T18:20:27.201Z,9.35
2023-03-13T18:22:59.664Z,9.46
2023-03-13T18:25:29.552Z,9.56
2023-03-13T18:27:58.675Z,9.61
2023-03-13T18:30:28.282Z,9.63
2023-03-13T18:32:56.596Z,9.63
2023-03-13T18:35:25.346Z,9.65
2023-03-13T18:37:53.838Z,9.67
2023-03-13T18:40:27.465Z,9.68
2023-03-13T18:42:56.032Z,9.69
2023-03-13T18:45:26.507Z,9.68
2023-03-13T18:47:55.168Z,9.67
2023-03-13T18:50:27.530Z,9.67
2023-03-13T18:53:00.516Z,9.66
2023-03-13T18:55:31.364Z,9.62
2023-03-13T18:57:59.637Z,9.61
2023-03-13T19:00:30.538Z,9.60
2023-03-13T19:02:58.968Z,9.58
2023-03-13T19:05:27.968Z,9.57
2023-03-13T19:07:56.455Z,9.56
2023-03-13T19:10:28.188Z,9.54
2023-03-13T19:12:57.223Z,9.52
2023-03-13T19:15:29.133Z,9.48
2023-03-13T19:18:02.639Z,9.44
2023-03-13T19:20:31.601Z,9.41
2023-03-13T19:23:01.014Z,9.36
2023-03-13T19:25:29.788Z,9.32
2023-03-13T19:27:58.064Z,9.28
2023-03-13T19:30:26.994Z,9.25
2023-03-13T19:32:55.301Z,9.22
2023-03-13T19:35:23.685Z,9.16
2023-03-13T19:37:52.126Z,9.12
2023-03-13T19:40:28.989Z,9.06
2023-03-13T19:42:57.580Z,9.03
2023-03-13T19:45:28.015Z,9.00
2023-03-13T19:47:56.698Z,8.94
2023-03-13T19:50:29.930Z,8.90
2023-03-13T19:52:58.276Z,8.86
2023-03-13T19:55:26.654Z,8.83
2023-03-13T19:57:55.142Z,8.79
2023-03-13T20:00:28.063Z,8.74
2023-03-13T20:02:56.440Z,8.69
2023-03-13T20:05:28.995Z,8.67
2023-03-13T20:07:57.586Z,8.65
2023-03-13T20:10:25.862Z,8.61
2023-03-13T20:12:54.475Z,8.58
2023-03-13T20:15:22.838Z,8.56
2023-03-13T20:17:51.335Z,8.52
2023-03-13T20:20:19.814Z,8.48
2023-03-13T20:22:47.994Z,8.47
2023-03-13T20:25:16.383Z,8.44
2023-03-13T20:27:44.773Z,8.41
2023-03-13T20:30:13.464Z,8.37
2023-03-13T20:32:53.000Z,8.34
2023-03-13T20:35:28.367Z,8.31
2023-03-13T20:37:59.998Z,8.30
2023-03-13T20:40:28.907Z,8.28
2023-03-13T20:42:58.360Z,8.26
2023-03-13T20:45:30.271Z,8.23
2023-03-13T20:47:59.158Z,8.20
2023-03-13T20:50:28.058Z,8.13
2023-03-13T20:52:56.440Z,8.07
2023-03-13T20:55:25.026Z,8.00
2023-03-13T20:57:53.732Z,7.96
2023-03-13T21:00:23.449Z,7.95
2023-03-13T21:02:53.926Z,7.91
2023-03-13T21:05:22.243Z,7.88
2023-03-13T21:07:50.629Z,7.82
2023-03-13T21:10:19.640Z,7.78
2023-03-13T21:12:48.012Z,7.75
2023-03-13T21:15:16.709Z,7.72
2023-03-13T21:17:45.296Z,7.70
2023-03-13T21:20:14.285Z,7.69
2023-03-13T21:22:43.805Z,7.69
2023-03-13T21:25:13.234Z,7.69
2023-03-13T21:27:44.065Z,7.69
2023-03-13T21:30:17.546Z,7.66
2023-03-13T21:32:46.363Z,7.64
2023-03-13T21:35:15.484Z,7.62
2023-03-13T21:37:44.239Z,7.60
2023-03-13T21:40:13.361Z,7.57
2023-03-13T21:42:42.235Z,7.55
2023-03-13T21:45:11.927Z,7.52
2023-03-13T21:47:40.639Z,7.47
2023-03-13T21:50:10.328Z,7.41
2023-03-13T21:52:41.367Z,7.35
2023-03-13T21:55:13.342Z,7.27
2023-03-13T21:57:41.863Z,7.23
2023-03-13T22:00:14.350Z,7.23
2023-03-13T22:02:44.275Z,7.19
2023-03-13T22:05:15.906Z,7.16
2023-03-13T22:07:45.524Z,7.14
2023-03-13T22:10:14.256Z,7.12
2023-03-13T22:12:42.694Z,7.09
2023-03-13T22:15:11.514Z,7.07
2023-03-13T22:17:39.683Z,6.99
2023-03-13T22:20:10.803Z,6.95
2023-03-13T22:22:40.326Z,6.96
2023-03-13T22:25:09.226Z,6.99
2023-03-13T22:27:37.716Z,7.03
2023-03-13T22:30:06.813Z,7.09
2023-03-13T22:32:35.212Z,7.11
2023-03-13T22:35:07.414Z,7.14
2023-03-13T22:37:36.144Z,7.15
2023-03-13T22:40:05.637Z,7.15
2023-03-13T22:42:34.052Z,7.15
2023-03-13T22:45:02.961Z,7.16
2023-03-13T22:47:32.764Z,7.16
2023-03-13T22:50:00.943Z,7.16
2023-03-13T22:52:31.070Z,7.14
2023-03-13T22:54:59.569Z,7.11
2023-03-13T22:57:29.884Z,7.08
2023-03-13T22:59:59.392Z,7.03
2023-03-13T23:02:28.103Z,7.00
2023-03-13T23:04:58.671Z,6.97
2023-03-13T23:07:31.307Z,6.93
2023-03-13T23:09:59.802Z,6.90
2023-03-13T23:12:30.932Z,6.85
2023-03-13T23:15:02.531Z,6.82
2023-03-13T23:17:32.843Z,6.78
2023-03-13T23:20:10.840Z,6.74
2023-03-13T23:22:45.615Z,6.70
2023-03-13T23:25:14.350Z,6.66
2023-03-13T23:27:42.831Z,6.60
2023-03-13T23:30:14.484Z,6.55
2023-03-13T23:32:46.116Z,6.49
2023-03-13T23:35:16.927Z,6.42
2023-03-13T23:37:49.489Z,6.37
2023-03-13T23:40:18.163Z,6.28
2023-03-13T23:42:48.239Z,6.20
2023-03-13T23:45:18.139Z,6.13
2023-03-13T23:47:46.688Z,6.07
2023-03-13T23:50:16.265Z,6.00
2023-03-13T23:52:44.480Z,5.92
2023-03-13T23:55:13.069Z,5.85
2023-03-13T23:57:41.662Z,5.77
